DK-0026 weather

Sønder Felding Flyveplads
Denmark

Public forecast

Using degrees Celsius for public forecast. Weather courtesy of forecast.io.

Closest aviation weather report (METAR) to Sønder Felding Flyveplads

Closest report is Stauning Airport, 13.3 nm (24.7 km) WNW. Retrieved 2019/10/14 13:50 UTC (35 minutes ago):

EKVJ 141350Z VRB02KT 9999 FEW030 BKN160 12/10 Q1014

Closest aviation forecast (TAF) to Sønder Felding Flyveplads

Closest forecast is Billund Airport, 18.5 nm (34.3 km) SE. Retrieved 2019/10/14 12:30 UTC (2 hours ago):

TAF EKBI 141059Z 1412/1512 VRB02KT 9999 BKN025 TEMPO 1418/1501 RA BKN010 BKN050CB BECMG 1421/1423 11015KT BECMG 1501/1503 3000 BR BKN006 TEMPO 1503/1512 6000 NSW BKN020